createdAt,value
2019-04-01T00:01:39.885Z,9.60
2019-04-01T00:04:00.579Z,9.70
2019-04-01T00:06:21.391Z,9.70
2019-04-01T00:08:43.115Z,9.50
2019-04-01T00:11:03.688Z,9.50
2019-04-01T00:13:24.340Z,9.50
2019-04-01T00:15:45.082Z,9.50
2019-04-01T00:18:05.758Z,9.30
2019-04-01T00:20:26.413Z,9.40
2019-04-01T00:22:47.197Z,9.20
2019-04-01T00:25:08.819Z,9.20
2019-04-01T00:27:29.325Z,9.20
2019-04-01T00:29:49.916Z,9.20
2019-04-01T00:32:10.447Z,9.10
2019-04-01T00:34:30.923Z,9.00
2019-04-01T00:36:51.421Z,9.10
2019-04-01T00:39:12.396Z,9.20
2019-04-01T00:41:34.560Z,9.10
2019-04-01T00:43:56.922Z,8.90
2019-04-01T00:46:18.009Z,8.70
2019-04-01T00:48:38.490Z,8.60
2019-04-01T00:50:59.146Z,8.70
2019-04-01T00:53:19.911Z,8.70
2019-04-01T00:55:40.445Z,8.70
2019-04-01T00:58:00.939Z,8.60
2019-04-01T01:00:21.763Z,8.60
2019-04-01T01:02:42.349Z,8.50
2019-04-01T01:05:03.311Z,8.40
2019-04-01T01:07:23.854Z,8.40
2019-04-01T01:09:44.340Z,8.40
2019-04-01T01:12:04.979Z,8.30
2019-04-01T01:14:27.147Z,8.20
2019-04-01T01:16:50.311Z,8.30
2019-04-01T01:19:10.294Z,8.30
2019-04-01T01:21:32.177Z,8.30
2019-04-01T01:23:52.800Z,8.20
2019-04-01T01:26:14.872Z,8.20
2019-04-01T01:28:35.397Z,8.10
2019-04-01T01:31:04.915Z,8.10
2019-04-01T01:33:25.507Z,8.10
2019-04-01T01:35:46.057Z,8.10
2019-04-01T01:38:07.585Z,8.00
2019-04-01T01:40:31.983Z,8.00
2019-04-01T01:42:54.574Z,7.90
2019-04-01T01:45:15.072Z,7.80
2019-04-01T01:47:35.605Z,7.70
2019-04-01T01:49:56.132Z,7.70
2019-04-01T01:52:16.722Z,7.70
2019-04-01T01:54:37.331Z,7.70
2019-04-01T01:56:57.955Z,7.70
2019-04-01T01:59:19.590Z,7.70
2019-04-01T02:01:40.255Z,7.60
2019-04-01T02:04:04.034Z,7.60
2019-04-01T02:06:24.586Z,7.60
2019-04-01T02:08:45.194Z,7.40
2019-04-01T02:11:05.763Z,7.40
2019-04-01T02:13:26.273Z,7.40
2019-04-01T02:15:46.815Z,7.40
2019-04-01T02:18:07.318Z,7.40
2019-04-01T02:20:27.848Z,7.30
2019-04-01T02:22:48.417Z,7.40
2019-04-01T02:25:09.118Z,7.40
2019-04-01T02:27:30.595Z,7.30
2019-04-01T02:29:52.173Z,7.30
2019-04-01T02:32:13.759Z,7.30
2019-04-01T02:34:47.265Z,7.30
2019-04-01T02:37:07.871Z,7.20
2019-04-01T02:39:28.480Z,7.20
2019-04-01T02:41:49.209Z,7.10
2019-04-01T02:44:09.746Z,7.10
2019-04-01T02:46:30.350Z,7.10
2019-04-01T02:48:51.654Z,7.10
2019-04-01T02:51:12.253Z,7.20
2019-04-01T02:53:33.778Z,7.10
2019-04-01T02:55:54.480Z,7.10
2019-04-01T02:58:15.065Z,7.00
2019-04-01T03:00:37.129Z,6.90
2019-04-01T03:02:57.697Z,6.90
2019-04-01T03:05:18.275Z,6.90
2019-04-01T03:07:38.857Z,6.80
2019-04-01T03:10:02.183Z,6.80
2019-04-01T03:12:21.459Z,6.70
2019-04-01T03:14:41.262Z,6.70
2019-04-01T03:17:01.830Z,6.70
2019-04-01T03:19:22.575Z,6.70
2019-04-01T03:21:43.243Z,6.70
2019-04-01T03:24:03.952Z,6.60
2019-04-01T03:26:24.461Z,6.70
2019-04-01T03:28:45.101Z,6.70
2019-04-01T03:31:05.869Z,6.70
2019-04-01T03:33:26.549Z,6.70
2019-04-01T03:35:47.122Z,6.70
2019-04-01T03:38:07.733Z,6.70
2019-04-01T03:40:28.217Z,6.80
2019-04-01T03:42:48.780Z,6.90
2019-04-01T03:45:09.684Z,7.00
2019-04-01T03:47:30.227Z,6.90
2019-04-01T03:49:50.802Z,6.80
2019-04-01T03:52:11.329Z,6.90
2019-04-01T03:54:31.915Z,7.10
2019-04-01T03:56:53.450Z,7.10
2019-04-01T03:59:13.982Z,7.10
2019-04-01T04:01:37.624Z,7.20
2019-04-01T04:03:58.161Z,7.30
2019-04-01T04:06:18.819Z,7.30
2019-04-01T04:08:39.370Z,7.30
2019-04-01T04:10:59.922Z,7.20
2019-04-01T04:13:20.535Z,7.20
2019-04-01T04:15:41.212Z,7.30
2019-04-01T04:18:01.784Z,7.30
2019-04-01T04:20:22.584Z,7.40
2019-04-01T04:22:43.214Z,7.30
2019-04-01T04:25:04.801Z,7.40
2019-04-01T04:27:25.462Z,7.50
2019-04-01T04:29:45.960Z,7.50
2019-04-01T04:32:06.597Z,7.60
2019-04-01T04:34:28.216Z,7.60
2019-04-01T04:36:48.794Z,7.70
2019-04-01T04:39:09.613Z,7.80
2019-04-01T04:41:30.245Z,7.70
2019-04-01T04:43:51.193Z,7.70
2019-04-01T04:46:11.886Z,7.70
2019-04-01T04:48:34.003Z,7.80
2019-04-01T04:50:54.542Z,7.70
2019-04-01T04:53:15.096Z,7.80
2019-04-01T04:55:35.622Z,7.80
2019-04-01T04:57:56.158Z,7.70
2019-04-01T05:00:16.768Z,7.70
2019-04-01T05:02:37.593Z,7.70
2019-04-01T05:04:58.414Z,7.70
2019-04-01T05:07:18.996Z,7.80
2019-04-01T05:09:39.584Z,7.90
2019-04-01T05:12:07.910Z,8.00
2019-04-01T05:14:40.260Z,7.90
2019-04-01T05:17:00.883Z,8.00
2019-04-01T05:19:21.437Z,8.00
2019-04-01T05:21:42.654Z,8.00
2019-04-01T05:24:04.428Z,8.10
2019-04-01T05:26:26.574Z,8.10
2019-04-01T05:28:48.712Z,8.10
2019-04-01T05:31:14.502Z,8.30
2019-04-01T05:33:38.633Z,8.40
2019-04-01T05:35:59.423Z,8.40
2019-04-01T05:38:19.276Z,8.40
2019-04-01T05:40:40.058Z,8.60
2019-04-01T05:43:00.759Z,8.70
2019-04-01T05:45:21.388Z,8.70
2019-04-01T05:47:43.700Z,8.50
2019-04-01T05:50:05.074Z,8.70
2019-04-01T05:52:25.789Z,8.80
2019-04-01T05:54:46.494Z,8.90
2019-04-01T05:57:07.192Z,9.00
2019-04-01T05:59:27.866Z,9.00
2019-04-01T06:07:16.578Z,9.10
2019-04-01T06:09:37.232Z,9.10
2019-04-01T06:11:59.204Z,9.20
2019-04-01T06:14:20.343Z,9.30
2019-04-01T06:16:40.973Z,9.40
2019-04-01T06:19:01.923Z,9.50
2019-04-01T06:21:22.467Z,9.60
2019-04-01T06:23:44.224Z,9.80
2019-04-01T06:26:04.990Z,9.80
2019-04-01T06:28:25.667Z,9.80
2019-04-01T06:30:46.287Z,9.90
2019-04-01T06:33:06.993Z,9.90
2019-04-01T06:35:27.594Z,10.00
2019-04-01T06:37:48.619Z,10.10
2019-04-01T06:40:10.108Z,10.30
2019-04-01T06:42:30.593Z,10.40
2019-04-01T06:44:51.300Z,10.30
2019-04-01T06:47:11.855Z,10.30
2019-04-01T06:49:33.933Z,10.40
2019-04-01T06:51:54.048Z,10.50
2019-04-01T06:54:14.868Z,10.50
2019-04-01T06:56:35.509Z,10.60
2019-04-01T06:58:56.077Z,10.70
2019-04-01T07:01:16.794Z,10.80
2019-04-01T07:03:36.786Z,10.90
2019-04-01T07:05:57.332Z,11.20
2019-04-01T07:08:18.044Z,11.30
2019-04-01T07:10:38.128Z,11.50
2019-04-01T07:12:58.272Z,11.70
2019-04-01T07:15:18.733Z,11.90
2019-04-01T07:17:39.432Z,12.10
2019-04-01T07:20:00.259Z,13.10
2019-04-01T07:22:20.478Z,16.30
2019-04-01T07:24:40.541Z,18.10
2019-04-01T07:27:00.513Z,19.00
2019-04-01T07:29:20.492Z,19.30
2019-04-01T07:31:40.620Z,19.60
2019-04-01T07:34:00.744Z,20.40
2019-04-01T07:36:22.270Z,20.60
2019-04-01T07:38:42.210Z,20.30
2019-04-01T07:41:02.283Z,20.40
2019-04-01T07:43:22.926Z,20.40
2019-04-01T07:45:43.069Z,20.10
2019-04-01T07:48:03.263Z,20.20
2019-04-01T07:50:23.289Z,20.50
2019-04-01T07:52:43.376Z,19.80
2019-04-01T07:55:04.109Z,20.10
2019-04-01T07:57:24.236Z,19.90
2019-04-01T07:59:44.536Z,20.50
2019-04-01T08:02:04.752Z,21.20
2019-04-01T08:04:25.436Z,21.10
2019-04-01T08:06:45.408Z,21.00
2019-04-01T08:09:07.141Z,21.20
2019-04-01T08:11:27.399Z,21.80
2019-04-01T08:13:47.730Z,21.80
2019-04-01T08:16:08.120Z,20.50
2019-04-01T08:18:28.351Z,20.90
2019-04-01T08:20:48.581Z,21.30
2019-04-01T08:23:08.841Z,21.60
2019-04-01T08:25:29.113Z,20.40
2019-04-01T08:27:49.441Z,21.70
2019-04-01T08:30:11.350Z,21.50
2019-04-01T08:32:32.135Z,22.10
2019-04-01T08:34:52.531Z,22.10
2019-04-01T08:37:12.908Z,22.20
2019-04-01T08:39:33.244Z,22.40
2019-04-01T08:41:53.614Z,22.40
2019-04-01T08:44:13.957Z,22.50
2019-04-01T08:46:34.677Z,22.30
2019-04-01T08:48:54.969Z,21.90
2019-04-01T08:51:14.953Z,21.70
2019-04-01T08:53:35.276Z,21.90
2019-04-01T08:56:00.620Z,21.40
2019-04-01T08:58:17.836Z,21.40
2019-04-01T09:00:38.118Z,21.20
2019-04-01T09:03:00.280Z,21.70
2019-04-01T09:05:20.202Z,21.20
2019-04-01T09:07:40.968Z,20.40
2019-04-01T09:10:02.423Z,20.90
2019-04-01T09:12:24.024Z,21.10
2019-04-01T09:14:44.762Z,21.40
2019-04-01T09:17:05.134Z,21.10
2019-04-01T09:19:25.649Z,21.20
2019-04-01T09:21:45.931Z,21.20
2019-04-01T09:24:06.331Z,20.70
2019-04-01T09:26:26.591Z,20.60
2019-04-01T09:28:46.920Z,21.30
2019-04-01T09:31:07.275Z,22.30
2019-04-01T09:33:27.458Z,22.30
2019-04-01T09:35:47.694Z,22.10
2019-04-01T09:38:08.038Z,22.60
2019-04-01T09:40:28.301Z,21.60
2019-04-01T09:42:48.550Z,21.50
2019-04-01T09:45:09.255Z,21.00
2019-04-01T09:47:29.829Z,20.30
2019-04-01T09:49:50.086Z,20.20
2019-04-01T09:52:10.338Z,20.00
2019-04-01T09:54:30.576Z,20.50
2019-04-01T09:56:51.977Z,21.40
2019-04-01T09:59:13.310Z,21.80
2019-04-01T10:01:33.546Z,21.30
2019-04-01T10:03:58.838Z,21.10
2019-04-01T10:06:18.996Z,21.50
2019-04-01T10:08:42.687Z,21.50
2019-04-01T10:11:01.135Z,21.60
2019-04-01T10:13:24.423Z,21.50
2019-04-01T10:15:44.832Z,21.40
2019-04-01T10:18:05.237Z,20.60
2019-04-01T10:20:25.484Z,20.40
2019-04-01T10:22:46.020Z,21.50
2019-04-01T10:25:07.031Z,21.60
2019-04-01T10:27:27.371Z,21.80
2019-04-01T10:29:47.696Z,21.90
2019-04-01T10:32:12.431Z,21.80
2019-04-01T10:34:34.247Z,21.60
2019-04-01T10:36:54.866Z,20.50
2019-04-01T10:39:15.101Z,20.70
2019-04-01T10:41:35.346Z,21.60
2019-04-01T10:43:55.702Z,21.40
2019-04-01T10:46:16.051Z,21.70
2019-04-01T10:48:36.335Z,22.30
2019-04-01T10:50:56.733Z,21.90
2019-04-01T10:53:17.039Z,21.90
2019-04-01T10:55:38.394Z,22.80
2019-04-01T10:57:58.837Z,22.30
2019-04-01T11:00:20.672Z,21.30
2019-04-01T11:02:41.062Z,22.20
2019-04-01T11:05:01.350Z,21.90
2019-04-01T11:07:24.903Z,21.70
2019-04-01T11:09:45.353Z,22.90
2019-04-01T11:12:05.736Z,22.30
2019-04-01T11:14:26.190Z,22.60
2019-04-01T11:16:46.586Z,21.50
2019-04-01T11:19:08.016Z,21.10
2019-04-01T11:21:28.233Z,21.40
2019-04-01T11:23:48.488Z,22.00
2019-04-01T11:26:08.880Z,21.80
2019-04-01T11:28:29.335Z,22.30
2019-04-01T11:30:49.649Z,22.80
2019-04-01T11:33:09.959Z,23.10
2019-04-01T11:35:30.508Z,22.40
2019-04-01T11:37:50.802Z,22.20
2019-04-01T11:40:12.266Z,22.30
2019-04-01T11:42:32.796Z,23.00
2019-04-01T11:44:53.263Z,23.30
2019-04-01T11:47:13.516Z,23.10
2019-04-01T11:49:33.873Z,22.50
2019-04-01T11:51:54.199Z,22.70
2019-04-01T11:54:14.445Z,22.50
2019-04-01T11:56:34.697Z,22.20
2019-04-01T11:58:56.742Z,22.30
2019-04-01T12:01:16.967Z,23.00
2019-04-01T12:03:37.298Z,23.00
2019-04-01T12:05:57.659Z,22.40
2019-04-01T12:08:17.955Z,22.80
2019-04-01T12:10:38.130Z,22.40
2019-04-01T12:12:59.974Z,23.10
2019-04-01T12:15:20.309Z,23.00
2019-04-01T12:17:41.716Z,22.30
2019-04-01T12:20:02.427Z,22.10
2019-04-01T12:22:22.864Z,22.20
2019-04-01T12:24:43.138Z,23.20
2019-04-01T12:27:03.698Z,23.10
2019-04-01T12:29:26.173Z,23.40
2019-04-01T12:31:46.481Z,23.20
2019-04-01T12:34:06.669Z,23.10
2019-04-01T12:36:27.575Z,21.10
2019-04-01T12:38:47.710Z,20.90
2019-04-01T12:41:07.756Z,20.50
2019-04-01T12:43:27.737Z,20.00
2019-04-01T12:45:47.722Z,20.00
2019-04-01T12:48:08.223Z,19.60
2019-04-01T12:50:28.548Z,19.70
2019-04-01T12:52:48.793Z,20.50
2019-04-01T12:55:09.784Z,22.00
2019-04-01T12:57:30.093Z,23.20
2019-04-01T12:59:50.358Z,22.20
2019-04-01T13:02:10.775Z,22.30
2019-04-01T13:04:31.082Z,21.50
2019-04-01T13:06:51.685Z,20.30
2019-04-01T13:09:12.262Z,20.00
2019-04-01T13:11:32.547Z,20.00
2019-04-01T13:13:53.819Z,20.00
2019-04-01T13:16:14.240Z,19.50
2019-04-01T13:18:38.111Z,20.50
2019-04-01T13:20:57.398Z,21.00
2019-04-01T13:23:17.688Z,20.60
2019-04-01T13:25:38.051Z,19.90
2019-04-01T13:27:58.375Z,20.00
2019-04-01T13:30:23.977Z,20.00
2019-04-01T13:32:42.650Z,20.00
2019-04-01T13:35:02.947Z,19.70
2019-04-01T13:37:23.203Z,19.80
2019-04-01T13:39:43.460Z,19.90
2019-04-01T13:42:03.751Z,19.90
2019-04-01T13:44:36.188Z,20.30
2019-04-01T13:46:48.531Z,21.40
2019-04-01T13:49:07.951Z,22.30
2019-04-01T13:51:28.332Z,21.00
2019-04-01T13:53:49.565Z,20.90
2019-04-01T13:56:10.373Z,21.10
2019-04-01T13:58:31.294Z,20.40
2019-04-01T14:00:51.495Z,19.70
2019-04-01T14:03:11.856Z,19.20
2019-04-01T14:05:32.172Z,19.00
2019-04-01T14:07:52.440Z,19.00
2019-04-01T14:10:13.127Z,19.30
2019-04-01T14:12:35.861Z,19.00
2019-04-01T14:14:57.385Z,19.00
2019-04-01T14:17:17.570Z,19.00
2019-04-01T14:19:37.827Z,19.00
2019-04-01T14:21:58.097Z,18.90
2019-04-01T14:24:18.344Z,19.00
2019-04-01T14:26:38.608Z,18.80
2019-04-01T14:29:00.539Z,18.60
2019-04-01T14:31:20.871Z,18.60
2019-04-01T14:33:41.110Z,18.50
2019-04-01T14:36:01.381Z,18.30
2019-04-01T14:38:21.595Z,18.30
2019-04-01T14:40:41.991Z,18.30
2019-04-01T14:43:02.254Z,18.30
2019-04-01T14:45:22.554Z,18.40
2019-04-01T14:47:56.630Z,18.60
2019-04-01T14:50:07.701Z,18.60
2019-04-01T14:52:32.600Z,18.60
2019-04-01T14:54:49.303Z,19.20
2019-04-01T14:57:09.239Z,18.60
2019-04-01T14:59:29.209Z,18.50
2019-04-01T15:01:49.252Z,18.30
2019-04-01T15:04:09.262Z,18.20
2019-04-01T15:06:29.478Z,18.10
2019-04-01T15:08:49.577Z,18.20
2019-04-01T15:11:09.597Z,18.20
2019-04-01T15:13:29.665Z,18.10
2019-04-01T15:15:49.908Z,18.00
2019-04-01T15:18:10.173Z,18.00
2019-04-01T15:20:30.688Z,17.90
2019-04-01T15:22:53.367Z,18.00
2019-04-01T15:25:13.071Z,17.80
2019-04-01T15:27:33.609Z,17.70
2019-04-01T15:29:54.105Z,17.60
2019-04-01T15:32:14.359Z,17.60
2019-04-01T15:34:34.628Z,17.50
2019-04-01T15:36:55.092Z,17.50
2019-04-01T15:39:16.207Z,17.40
2019-04-01T15:41:36.595Z,17.40
2019-04-01T15:43:56.929Z,17.40
2019-04-01T15:46:17.329Z,17.40
2019-04-01T15:48:37.781Z,17.40
2019-04-01T15:50:58.155Z,17.40
2019-04-01T15:53:18.460Z,17.40
2019-04-01T15:55:38.679Z,17.40
2019-04-01T15:57:59.088Z,17.40
2019-04-01T16:00:20.280Z,17.30
2019-04-01T16:02:40.481Z,17.30
2019-04-01T16:05:00.840Z,17.20
2019-04-01T16:07:22.575Z,17.20
2019-04-01T16:09:42.951Z,17.30
2019-04-01T16:12:03.243Z,17.20
2019-04-01T16:14:23.515Z,17.20
2019-04-01T16:16:44.120Z,17.20
2019-04-01T16:19:04.097Z,17.30
2019-04-01T16:21:24.173Z,17.20
2019-04-01T16:23:44.465Z,17.00
2019-04-01T16:26:05.566Z,17.00
2019-04-01T16:28:25.618Z,16.90
2019-04-01T16:30:45.506Z,16.90
2019-04-01T16:33:05.499Z,16.80
2019-04-01T16:35:25.539Z,16.80
2019-04-01T16:37:45.547Z,16.70
2019-04-01T16:40:06.309Z,16.60
2019-04-01T16:42:26.685Z,16.50
2019-04-01T16:44:47.426Z,16.50
2019-04-01T16:47:07.524Z,16.40
2019-04-01T16:49:27.520Z,16.30
2019-04-01T16:51:47.555Z,16.20
2019-04-01T16:54:07.618Z,16.20
2019-04-01T16:56:27.881Z,16.20
2019-04-01T16:58:48.049Z,16.10
2019-04-01T17:01:08.325Z,16.00
2019-04-01T17:03:28.683Z,15.90
2019-04-01T17:05:49.068Z,15.80
2019-04-01T17:08:10.668Z,15.80
2019-04-01T17:10:31.066Z,15.70
2019-04-01T17:12:51.436Z,15.70
2019-04-01T17:15:11.778Z,15.60
2019-04-01T17:17:32.049Z,15.50
2019-04-01T17:19:52.354Z,15.40
2019-04-01T17:22:18.602Z,15.30
2019-04-01T17:24:39.168Z,15.30
2019-04-01T17:27:12.973Z,15.20
2019-04-01T17:29:33.415Z,15.10
2019-04-01T17:31:53.754Z,15.10
2019-04-01T17:34:15.108Z,15.00
2019-04-01T17:36:35.982Z,15.00
2019-04-01T17:38:55.873Z,14.90
2019-04-01T17:41:16.044Z,14.80
2019-04-01T17:43:36.063Z,14.70
2019-04-01T17:45:56.119Z,14.70
2019-04-01T17:48:16.109Z,14.60
2019-04-01T17:50:36.206Z,14.60
2019-04-01T17:52:56.192Z,14.50
2019-04-01T17:55:17.052Z,14.50
2019-04-01T17:57:37.876Z,14.40
2019-04-01T17:59:59.058Z,14.20
2019-04-01T18:02:29.477Z,14.20
2019-04-01T18:04:49.479Z,14.10
2019-04-01T18:07:09.746Z,14.00
2019-04-01T18:09:31.033Z,13.90
2019-04-01T18:11:51.458Z,13.80
2019-04-01T18:14:11.993Z,13.70
2019-04-01T18:16:32.086Z,13.60
2019-04-01T18:18:52.654Z,13.60
2019-04-01T18:21:12.595Z,13.60
2019-04-01T18:23:32.606Z,13.40
2019-04-01T18:25:52.626Z,13.40
2019-04-01T18:28:14.407Z,13.30
2019-04-01T18:30:35.269Z,13.20
2019-04-01T18:32:56.621Z,13.10
2019-04-01T18:35:17.298Z,13.10
2019-04-01T18:37:37.409Z,13.00
2019-04-01T18:39:57.951Z,12.90
2019-04-01T18:42:17.915Z,12.90
2019-04-01T18:44:37.923Z,12.70
2019-04-01T18:46:58.483Z,12.70
2019-04-01T18:49:19.124Z,12.60
2019-04-01T18:51:40.355Z,12.50
2019-04-01T18:54:01.122Z,12.40
2019-04-01T18:56:21.657Z,12.40
2019-04-01T18:58:41.727Z,12.30
2019-04-01T19:01:04.301Z,12.20
2019-04-01T19:03:24.185Z,12.10
2019-04-01T19:05:47.002Z,12.10
2019-04-01T19:08:06.708Z,12.00
2019-04-01T19:10:27.436Z,12.00
2019-04-01T19:12:47.972Z,11.90
2019-04-01T19:15:09.866Z,11.80
2019-04-01T19:17:30.454Z,11.70
2019-04-01T19:19:50.979Z,11.60
2019-04-01T19:22:12.659Z,11.60
2019-04-01T19:24:33.504Z,11.60
2019-04-01T19:26:54.046Z,11.50
2019-04-01T19:29:16.153Z,11.50
2019-04-01T19:31:37.110Z,11.40
2019-04-01T19:33:57.127Z,11.30
2019-04-01T19:36:17.109Z,11.30
2019-04-01T19:38:37.252Z,11.20
2019-04-01T19:40:59.802Z,11.20
2019-04-01T19:43:19.995Z,11.10
2019-04-01T19:45:40.518Z,11.00
2019-04-01T19:48:02.349Z,10.90
2019-04-01T19:50:23.427Z,10.80
2019-04-01T19:52:44.447Z,10.80
2019-04-01T19:55:06.260Z,10.70
2019-04-01T19:57:27.972Z,10.60
2019-04-01T19:59:47.917Z,10.70
2019-04-01T20:02:09.758Z,10.60
2019-04-01T20:04:29.942Z,10.50
2019-04-01T20:06:50.576Z,10.30
2019-04-01T20:09:11.082Z,10.20
2019-04-01T20:11:31.549Z,10.10
2019-04-01T20:13:54.802Z,10.00
2019-04-01T20:16:15.325Z,9.90
2019-04-01T20:18:36.232Z,9.90
2019-04-01T20:20:57.324Z,9.80
2019-04-01T20:23:17.368Z,10.00
2019-04-01T20:25:37.943Z,9.90
2019-04-01T20:27:59.794Z,9.90
2019-04-01T20:30:21.021Z,9.80
2019-04-01T20:32:44.259Z,9.80
2019-04-01T20:35:22.046Z,9.70
2019-04-01T20:37:34.773Z,9.60
2019-04-01T20:39:56.643Z,9.70
2019-04-01T20:42:17.552Z,9.60
2019-04-01T20:44:38.110Z,9.60
2019-04-01T20:46:58.753Z,9.60
2019-04-01T20:49:19.378Z,9.50
2019-04-01T20:51:40.039Z,9.40
2019-04-01T20:54:00.643Z,9.40
2019-04-01T20:56:21.450Z,9.40
2019-04-01T20:58:42.184Z,9.40
2019-04-01T21:01:04.473Z,9.20
2019-04-01T21:03:24.932Z,9.20
2019-04-01T21:05:45.623Z,9.20
2019-04-01T21:08:06.099Z,9.20
2019-04-01T21:10:26.677Z,9.20
2019-04-01T21:12:47.453Z,9.10
2019-04-01T21:15:08.632Z,9.00
2019-04-01T21:17:29.183Z,9.00
2019-04-01T21:19:49.774Z,8.90
2019-04-01T21:22:10.389Z,8.90
2019-04-01T21:24:30.884Z,8.80
2019-04-01T21:26:51.399Z,8.80
2019-04-01T21:29:11.871Z,8.70
2019-04-01T21:31:32.508Z,8.60
2019-04-01T21:33:53.596Z,8.60
2019-04-01T21:36:16.042Z,8.50
2019-04-01T21:38:36.398Z,8.50
2019-04-01T21:40:57.007Z,8.40
2019-04-01T21:43:20.100Z,8.30
2019-04-01T21:45:40.760Z,8.20
2019-04-01T21:48:01.576Z,8.10
2019-04-01T21:50:22.231Z,8.20
2019-04-01T21:52:43.759Z,8.10
2019-04-01T21:55:07.899Z,8.10
2019-04-01T21:57:28.760Z,8.10
2019-04-01T21:59:52.123Z,8.10
2019-04-01T22:02:11.213Z,8.10
2019-04-01T22:04:30.939Z,8.10
2019-04-01T22:06:51.423Z,8.00
2019-04-01T22:09:12.124Z,7.90
2019-04-01T22:11:32.843Z,7.90
2019-04-01T22:13:53.568Z,7.80
2019-04-01T22:16:14.194Z,7.80
2019-04-01T22:18:34.772Z,7.80
2019-04-01T22:20:55.359Z,7.70
2019-04-01T22:23:15.899Z,7.70
2019-04-01T22:25:36.472Z,7.60
2019-04-01T22:27:57.076Z,7.70
2019-04-01T22:30:17.800Z,7.70
2019-04-01T22:32:40.070Z,7.60
2019-04-01T22:35:00.604Z,7.60
2019-04-01T22:37:27.165Z,7.50
2019-04-01T22:39:45.583Z,7.40
2019-04-01T22:42:05.880Z,7.30
2019-04-01T22:44:26.433Z,7.40
2019-04-01T22:46:47.510Z,7.30
2019-04-01T22:49:08.579Z,7.20
2019-04-01T22:51:29.044Z,7.10
2019-04-01T22:53:49.530Z,7.00
2019-04-01T22:56:10.073Z,7.10
2019-04-01T22:58:30.669Z,7.20
2019-04-01T23:00:51.191Z,7.10
2019-04-01T23:03:11.902Z,7.00
2019-04-01T23:05:32.520Z,6.90
2019-04-01T23:07:53.040Z,6.90
2019-04-01T23:10:13.732Z,6.90
2019-04-01T23:12:34.354Z,7.00
2019-04-01T23:14:56.258Z,7.00
2019-04-01T23:17:18.425Z,7.10
2019-04-01T23:19:38.914Z,7.10
2019-04-01T23:22:00.263Z,7.10
2019-04-01T23:24:21.078Z,7.10
2019-04-01T23:26:42.695Z,7.20
2019-04-01T23:29:03.236Z,7.10
2019-04-01T23:31:23.989Z,7.20
2019-04-01T23:33:45.132Z,7.30
2019-04-01T23:36:06.014Z,7.30
2019-04-01T23:38:26.603Z,7.20
2019-04-01T23:40:47.172Z,7.30
2019-04-01T23:43:07.767Z,7.10
2019-04-01T23:45:29.974Z,7.20
2019-04-01T23:47:50.608Z,7.10
2019-04-01T23:50:11.320Z,7.20
2019-04-01T23:52:31.867Z,7.30
2019-04-01T23:54:52.366Z,7.40
2019-04-01T23:57:12.901Z,7.30
2019-04-01T23:59:33.483Z,7.40
